Main page
METAR-TAF:

METAR-TAF

Airports :

Norwich Airport

Norwich, England

latitude: 52-38N, longitude: 001-18E, elevation: 14 m

Current weather observation

The report was made 31 minutes ago, at 20:50 UTC
Wind 6 kt from the South
Temperature 7°C
Humidity 87%
Pressure 1024 hPa
Visibility 10 km or more
no clouds below 1500 m and no cumulonimbus

METAR: EGSH 132050Z 19006KT CAVOK 07/05 Q1024 NOSIG

Time: 21:21 (21:21 UTC)

Forecast

The report was made 1 hour and 19 minutes ago, at 20:02 UTC
Forecast valid from 13 at 21 UTC to 14 at 06 UTC
Wind 10 kt from the South/Southwest
Visibility 10 km or more
Few clouds at a height of 3000 ft

TAF: EGSH 132002Z 1321/1406 20010KT 9999 FEW030

Weather observations and forecasts of more than 4000 airports (METAR and TAF reports).

The available stations are represented by yellow and red dots on the map.

Hover mouse over dot to see the name of the station.

Then click to see weather observations and forecasts.

To change the map : click on the green buttons with a black cross to zoom in, on the green button with a dash to zoom out, or on the green arrows for adjacent maps.


METAR-TAF: